[source: ADDS]
METAR
EDVE 161850Z AUTO 00000KT 9999 // OVC049/// 07/05 Q1021

TAF EDVE 161700Z 1618/1621 VRB02KT 9999 SCT045 EDDV 161850Z 24003KT 9999 BKN045 09/04 Q1021 NOSIG

TAF EDDV 161700Z 1618/1718 23004KT 9999 SCT030 TEMPO 1708/1713 23009KT ETHS 161820Z AUTO 23005KT 9999 // ////// 09/04 Q1020 ///

ETHC 161820Z AUTO 21001KT 7000 // ////// 09/07 Q1021 ///

EDVK 161750Z 06003KT 020V080 9999 OVC044 08/06 Q1021

TAF EDVK 161700Z 1618/1703 VRB02KT 9999 BKN045
TAF
TAF EDVE 161700Z 1618/1621 VRB02KT 9999 SCT045

TAF EDDV 161700Z 1618/1718 23004KT 9999 SCT030 TEMPO 1708/1713 23009KT

TAF EDVK 161700Z 1618/1703 VRB02KT 9999 BKN045

SR / SS: 05:45 / 16:21 UTC (EDVE 2021-10-16)
Simon hat seinen ersten Alleinflug absolviert! Herzlichen Glückwunsch und weiterhin Happy Landings! +++ Karsten und Fabian haben die praktische PPL-Prüfung bestanden! Gratulation und weiterhin Happy Landings! +++ Micha hat seine praktische PPL-Prüfung bestanden! Herzlichen Glückwunsch und weiterhin Happy Landings! +++ Willkommen bei der FFG, Arman! Viel Erfolg bei der Ausbildung! +++ Wir heißen Torben als neuen Flugschüler willkommen und wünschen eine erfolgreiche Ausbildung! +++ Und noch ein frischgebackener Pilot in der FFG: Frederik hat seine PPL-Prüfung bestanden! Gratulation und weiterhin Happy Landings! +++ Herzlich Willkommen bei der FFG, Marc! Viel Spaß und Erfolg bei deiner Ausbildung! +++ Felix hat seine praktische PPL-Prüfung bestanden! Herzlichen Glückwunsch und always Happy Landings! +++ Wir gratulieren Thiago zum ersten Soloflug! Herzlichen Glückwunsch und weiterhin Happy Landings!

Webcam Wetter am Flughafen Braunschweig-Wolfsburg Richtung Norden. Das Bild wird alle 60 Sekunden aktualisiert.

Neues Bild in 60 Sekunden

Letztes NOTAM EDVE
von 29.09.2021 1421Z bis 28.12.2021 2359Z
ALL VFR FLT AND IFR TRAINING FLT HAVE TO EXPECT RESTRICTIONS AND/OR DELAY DUE TO ATC CAPACITY.

Letztes NOTAM EDCB
von 27.09.2021 1344Z bis 31.10.2021 2359Z
HR OF SER DAILY 0700-1700, OTHER TIMES PPR VIA +49(0)39483215.

Letztes NOTAM EDBC
von 01.09.2021 0949Z bis 01.12.2021 2359Z
ILS RWY 26 U/S.

Letztes NOTAM EDVM
von 01.09.2021 1653Z bis 31.10.2021 2359Z
CRANE 700M SW ARP, ELEV 415FT/120FT AGL. NOT MARKED.

Letztes NOTAM EDVI
von 08.10.2021 1242Z bis 17.10.2021 2359Z
NO MARKINGS ON RWY 13/31 (ASPH).

Letztes NOTAM EDDV
von 16.10.2021 1300Z bis 16.10.2021 2030Z
VFR FLIGHTS SHOULD AVOID HANNOVER AIRPORT AND CTR DUE TO ATC STAFFING PROBLEMS OR EXPECT SIGNIFICANT DELAY WHEN APPROACHING, DEPARTI [more]

Letztes NOTAM EDVK
von 11.10.2021 0552Z bis 03.11.2021 2359Z
AD EDVK KASSEL CALDEN EUROFIGHTER FLIP, TORNADO FLIP AD CHART AND ALL PROCEDURES CHANGE AD ELEV FROM 861 TO 860 NOTAM WILL BE INCORPOR [more]